sensor_id;sensor_type;location;lat;lon;timestamp;pressure;altitude;pressure_sealevel;temperature;humidity
10466;BME280;5280;42.600;23.556;2023-09-12T00:00:42;93579.81;;;16.94;47.07
10466;BME280;5280;42.600;23.556;2023-09-12T00:03:09;93587.53;;;16.97;47.57
10466;BME280;5280;42.600;23.556;2023-09-12T00:05:36;93594.00;;;16.95;46.62
10466;BME280;5280;42.600;23.556;2023-09-12T00:08:04;93592.69;;;16.99;48.09
10466;BME280;5280;42.600;23.556;2023-09-12T00:10:31;93591.66;;;16.92;46.91
10466;BME280;5280;42.600;23.556;2023-09-12T00:12:58;93591.50;;;16.93;47.10
10466;BME280;5280;42.600;23.556;2023-09-12T00:15:27;93595.75;;;16.86;46.34
10466;BME280;5280;42.600;23.556;2023-09-12T00:17:55;93589.22;;;16.81;48.18
10466;BME280;5280;42.600;23.556;2023-09-12T00:20:22;93602.41;;;16.82;47.85
10466;BME280;5280;42.600;23.556;2023-09-12T00:22:49;93597.53;;;16.77;47.74
10466;BME280;5280;42.600;23.556;2023-09-12T00:25:16;93594.47;;;16.72;46.45
10466;BME280;5280;42.600;23.556;2023-09-12T00:27:43;93594.63;;;16.71;47.29
10466;BME280;5280;42.600;23.556;2023-09-12T00:30:10;93582.88;;;16.64;49.74
10466;BME280;5280;42.600;23.556;2023-09-12T00:32:37;93595.78;;;16.68;49.12
10466;BME280;5280;42.600;23.556;2023-09-12T00:35:06;93594.56;;;16.63;48.78
10466;BME280;5280;42.600;23.556;2023-09-12T00:37:33;93602.25;;;16.66;47.30
10466;BME280;5280;42.600;23.556;2023-09-12T00:40:00;93602.84;;;16.60;47.68
10466;BME280;5280;42.600;23.556;2023-09-12T00:42:26;93600.47;;;16.57;47.62
10466;BME280;5280;42.600;23.556;2023-09-12T00:44:53;93595.41;;;16.54;47.85
10466;BME280;5280;42.600;23.556;2023-09-12T00:47:20;93600.59;;;16.55;47.89
10466;BME280;5280;42.600;23.556;2023-09-12T00:49:49;93598.78;;;16.56;48.60
10466;BME280;5280;42.600;23.556;2023-09-12T00:52:19;93591.84;;;16.45;49.28
10466;BME280;5280;42.600;23.556;2023-09-12T00:54:48;93600.09;;;16.52;50.09
10466;BME280;5280;42.600;23.556;2023-09-12T00:57:14;93606.25;;;16.52;49.21
10466;BME280;5280;42.600;23.556;2023-09-12T00:59:41;93607.94;;;16.53;48.74
10466;BME280;5280;42.600;23.556;2023-09-12T01:02:08;93610.63;;;16.53;49.92
10466;BME280;5280;42.600;23.556;2023-09-12T01:04:35;93603.75;;;16.51;49.32
10466;BME280;5280;42.600;23.556;2023-09-12T01:07:03;93605.03;;;16.47;50.33
10466;BME280;5280;42.600;23.556;2023-09-12T01:09:32;93608.28;;;16.41;51.05
10466;BME280;5280;42.600;23.556;2023-09-12T01:11:59;93598.84;;;16.28;50.48
10466;BME280;5280;42.600;23.556;2023-09-12T01:14:27;93609.06;;;16.33;51.16
10466;BME280;5280;42.600;23.556;2023-09-12T01:16:54;93612.00;;;16.30;52.06
10466;BME280;5280;42.600;23.556;2023-09-12T01:19:21;93609.13;;;16.23;52.41
10466;BME280;5280;42.600;23.556;2023-09-12T01:22:21;93619.09;;;16.21;52.71
10466;BME280;5280;42.600;23.556;2023-09-12T01:25:08;93615.19;;;16.16;53.67
10466;BME280;5280;42.600;23.556;2023-09-12T01:27:43;93604.13;;;16.11;51.13
10466;BME280;5280;42.600;23.556;2023-09-12T01:30:12;93620.28;;;16.09;52.27
10466;BME280;5280;42.600;23.556;2023-09-12T01:32:44;93601.25;;;15.94;53.04
10466;BME280;5280;42.600;23.556;2023-09-12T01:35:11;93617.91;;;16.06;53.05
10466;BME280;5280;42.600;23.556;2023-09-12T01:37:38;93613.88;;;16.02;53.26
10466;BME280;5280;42.600;23.556;2023-09-12T01:40:06;93620.56;;;16.06;52.05
10466;BME280;5280;42.600;23.556;2023-09-12T01:42:37;93615.84;;;16.00;50.95
10466;BME280;5280;42.600;23.556;2023-09-12T01:45:09;93612.63;;;15.97;52.11
10466;BME280;5280;42.600;23.556;2023-09-12T01:47:37;93616.63;;;15.83;53.25
10466;BME280;5280;42.600;23.556;2023-09-12T01:50:06;93616.91;;;15.80;54.40
10466;BME280;5280;42.600;23.556;2023-09-12T01:52:35;93619.16;;;15.75;54.18
10466;BME280;5280;42.600;23.556;2023-09-12T01:55:03;93616.84;;;15.62;55.18
10466;BME280;5280;42.600;23.556;2023-09-12T01:57:31;93622.06;;;15.54;55.47
10466;BME280;5280;42.600;23.556;2023-09-12T01:59:58;93611.97;;;15.48;55.89
10466;BME280;5280;42.600;23.556;2023-09-12T02:02:26;93616.19;;;15.41;56.80
10466;BME280;5280;42.600;23.556;2023-09-12T02:05:02;93624.91;;;15.33;57.42
10466;BME280;5280;42.600;23.556;2023-09-12T02:07:33;93626.97;;;15.39;57.56
10466;BME280;5280;42.600;23.556;2023-09-12T02:10:04;93626.00;;;15.40;56.71
10466;BME280;5280;42.600;23.556;2023-09-12T02:12:31;93627.38;;;15.44;57.80
10466;BME280;5280;42.600;23.556;2023-09-12T02:14:58;93631.72;;;15.45;57.41
10466;BME280;5280;42.600;23.556;2023-09-12T02:17:26;93630.03;;;15.44;57.22
10466;BME280;5280;42.600;23.556;2023-09-12T02:19:53;93634.69;;;15.42;56.97
10466;BME280;5280;42.600;23.556;2023-09-12T02:22:20;93632.16;;;15.41;57.18
10466;BME280;5280;42.600;23.556;2023-09-12T02:24:47;93622.06;;;15.35;57.47
10466;BME280;5280;42.600;23.556;2023-09-12T02:27:13;93633.03;;;15.32;57.85
10466;BME280;5280;42.600;23.556;2023-09-12T02:29:41;93644.22;;;15.35;58.18
10466;BME280;5280;42.600;23.556;2023-09-12T02:32:08;93638.63;;;15.38;57.01
10466;BME280;5280;42.600;23.556;2023-09-12T02:34:36;93631.06;;;15.34;57.39
10466;BME280;5280;42.600;23.556;2023-09-12T02:37:03;93633.03;;;15.32;58.32
10466;BME280;5280;42.600;23.556;2023-09-12T02:39:30;93633.16;;;15.30;57.92
10466;BME280;5280;42.600;23.556;2023-09-12T02:41:56;93623.22;;;15.32;57.78
10466;BME280;5280;42.600;23.556;2023-09-12T02:44:23;93636.66;;;15.31;58.22
10466;BME280;5280;42.600;23.556;2023-09-12T02:46:50;93635.72;;;15.22;58.99
10466;BME280;5280;42.600;23.556;2023-09-12T02:49:17;93625.75;;;15.15;59.08
10466;BME280;5280;42.600;23.556;2023-09-12T02:51:45;93638.53;;;15.11;58.98
10466;BME280;5280;42.600;23.556;2023-09-12T02:54:12;93624.78;;;15.06;58.34
10466;BME280;5280;42.600;23.556;2023-09-12T02:56:39;93630.13;;;15.06;58.89
10466;BME280;5280;42.600;23.556;2023-09-12T02:59:06;93630.56;;;15.01;59.61
10466;BME280;5280;42.600;23.556;2023-09-12T03:01:33;93626.06;;;15.02;59.13
10466;BME280;5280;42.600;23.556;2023-09-12T03:04:00;93633.63;;;14.97;60.12
10466;BME280;5280;42.600;23.556;2023-09-12T03:06:28;93624.94;;;14.95;60.41
10466;BME280;5280;42.600;23.556;2023-09-12T03:08:56;93633.09;;;14.93;59.76
10466;BME280;5280;42.600;23.556;2023-09-12T03:11:25;93640.91;;;14.95;59.94
10466;BME280;5280;42.600;23.556;2023-09-12T03:13:52;93633.22;;;14.92;60.51
10466;BME280;5280;42.600;23.556;2023-09-12T03:16:19;93620.22;;;14.89;60.51
10466;BME280;5280;42.600;23.556;2023-09-12T03:18:46;93630.28;;;14.85;61.02
10466;BME280;5280;42.600;23.556;2023-09-12T03:21:13;93632.94;;;14.85;59.95
10466;BME280;5280;42.600;23.556;2023-09-12T03:23:40;93627.19;;;14.80;59.97
10466;BME280;5280;42.600;23.556;2023-09-12T03:26:08;93629.59;;;14.83;59.95
10466;BME280;5280;42.600;23.556;2023-09-12T03:28:34;93631.13;;;14.86;59.57
10466;BME280;5280;42.600;23.556;2023-09-12T03:31:06;93633.09;;;14.84;61.09
10466;BME280;5280;42.600;23.556;2023-09-12T03:33:33;93639.25;;;14.84;60.25
10466;BME280;5280;42.600;23.556;2023-09-12T03:36:00;93642.72;;;14.85;61.16
10466;BME280;5280;42.600;23.556;2023-09-12T03:38:27;93640.25;;;14.83;61.05
10466;BME280;5280;42.600;23.556;2023-09-12T03:40:53;93641.50;;;14.79;61.67
10466;BME280;5280;42.600;23.556;2023-09-12T03:43:21;93645.69;;;14.82;62.44
10466;BME280;5280;42.600;23.556;2023-09-12T03:45:48;93650.16;;;14.81;62.68
10466;BME280;5280;42.600;23.556;2023-09-12T03:48:15;93651.13;;;14.80;62.50
10466;BME280;5280;42.600;23.556;2023-09-12T03:50:42;93647.63;;;14.80;62.86
10466;BME280;5280;42.600;23.556;2023-09-12T03:53:10;93645.13;;;14.78;63.13
10466;BME280;5280;42.600;23.556;2023-09-12T03:55:37;93645.28;;;14.77;63.13
10466;BME280;5280;42.600;23.556;2023-09-12T03:58:04;93647.94;;;14.77;62.84
10466;BME280;5280;42.600;23.556;2023-09-12T04:00:32;93644.56;;;14.75;62.77
10466;BME280;5280;42.600;23.556;2023-09-12T04:02:58;93644.44;;;14.76;63.41
10466;BME280;5280;42.600;23.556;2023-09-12T04:05:25;93649.06;;;14.74;62.11
10466;BME280;5280;42.600;23.556;2023-09-12T04:07:52;93639.41;;;14.73;62.16
10466;BME280;5280;42.600;23.556;2023-09-12T04:10:20;93650.28;;;14.70;62.64
10466;BME280;5280;42.600;23.556;2023-09-12T04:12:47;93649.47;;;14.70;62.56
10466;BME280;5280;42.600;23.556;2023-09-12T04:15:14;93646.78;;;14.70;62.45
10466;BME280;5280;42.600;23.556;2023-09-12T04:17:42;93648.06;;;14.65;63.05
10466;BME280;5280;42.600;23.556;2023-09-12T04:20:09;93658.00;;;14.63;63.22
10466;BME280;5280;42.600;23.556;2023-09-12T04:22:39;93656.47;;;14.61;62.88
10466;BME280;5280;42.600;23.556;2023-09-12T04:25:06;93651.25;;;14.59;63.29
10466;BME280;5280;42.600;23.556;2023-09-12T04:27:32;93648.59;;;14.59;62.82
10466;BME280;5280;42.600;23.556;2023-09-12T04:30:00;93651.44;;;14.58;63.38
10466;BME280;5280;42.600;23.556;2023-09-12T04:32:26;93646.53;;;14.53;63.79
10466;BME280;5280;42.600;23.556;2023-09-12T04:34:54;93653.53;;;14.54;64.17
10466;BME280;5280;42.600;23.556;2023-09-12T04:37:21;93652.69;;;14.54;64.79
10466;BME280;5280;42.600;23.556;2023-09-12T04:39:48;93659.13;;;14.51;64.87
10466;BME280;5280;42.600;23.556;2023-09-12T04:42:15;93656.31;;;14.53;64.82
10466;BME280;5280;42.600;23.556;2023-09-12T04:44:41;93651.84;;;14.53;65.64
10466;BME280;5280;42.600;23.556;2023-09-12T04:47:08;93654.22;;;14.56;65.82
10466;BME280;5280;42.600;23.556;2023-09-12T04:49:35;93657.44;;;14.60;65.27
10466;BME280;5280;42.600;23.556;2023-09-12T04:52:04;93647.63;;;14.60;66.04
10466;BME280;5280;42.600;23.556;2023-09-12T04:54:31;93661.78;;;14.61;66.38
10466;BME280;5280;42.600;23.556;2023-09-12T04:56:58;93661.34;;;14.65;66.59
10466;BME280;5280;42.600;23.556;2023-09-12T04:59:25;93651.31;;;14.69;66.68
10466;BME280;5280;42.600;23.556;2023-09-12T05:01:51;93647.22;;;14.75;66.90
10466;BME280;5280;42.600;23.556;2023-09-12T05:04:18;93655.06;;;14.86;67.78
10466;BME280;5280;42.600;23.556;2023-09-12T05:06:45;93646.25;;;14.85;67.75
10466;BME280;5280;42.600;23.556;2023-09-12T05:09:13;93659.41;;;15.06;67.63
10466;BME280;5280;42.600;23.556;2023-09-12T05:11:40;93651.28;;;15.17;67.39
10466;BME280;5280;42.600;23.556;2023-09-12T05:14:07;93656.16;;;15.31;67.44
10466;BME280;5280;42.600;23.556;2023-09-12T05:16:34;93651.22;;;15.36;67.00
10466;BME280;5280;42.600;23.556;2023-09-12T05:19:01;93666.66;;;15.52;67.02
10466;BME280;5280;42.600;23.556;2023-09-12T05:21:27;93671.81;;;15.63;66.71
10466;BME280;5280;42.600;23.556;2023-09-12T05:23:54;93668.97;;;15.74;65.61
10466;BME280;5280;42.600;23.556;2023-09-12T05:26:22;93668.25;;;15.82;65.10
10466;BME280;5280;42.600;23.556;2023-09-12T05:28:50;93666.25;;;15.93;64.70
10466;BME280;5280;42.600;23.556;2023-09-12T05:31:16;93663.53;;;16.03;65.07
10466;BME280;5280;42.600;23.556;2023-09-12T05:33:43;93646.13;;;15.99;65.16
10466;BME280;5280;42.600;23.556;2023-09-12T05:36:09;93665.56;;;16.19;64.82
10466;BME280;5280;42.600;23.556;2023-09-12T05:38:36;93673.34;;;16.30;61.84
10466;BME280;5280;42.600;23.556;2023-09-12T05:41:02;93675.44;;;16.36;62.17
10466;BME280;5280;42.600;23.556;2023-09-12T05:43:31;93669.19;;;16.45;62.83
10466;BME280;5280;42.600;23.556;2023-09-12T05:45:57;93668.03;;;16.57;62.78
10466;BME280;5280;42.600;23.556;2023-09-12T05:48:24;93662.78;;;16.65;62.73
10466;BME280;5280;42.600;23.556;2023-09-12T05:50:51;93668.38;;;16.72;62.42
10466;BME280;5280;42.600;23.556;2023-09-12T11:20:53;93565.13;;;27.25;26.80
10466;BME280;5280;42.600;23.556;2023-09-12T11:23:25;93551.28;;;27.09;29.36
10466;BME280;5280;42.600;23.556;2023-09-12T11:26:02;93556.47;;;27.10;29.92
10466;BME280;5280;42.600;23.556;2023-09-12T11:28:31;93550.78;;;27.18;28.58
10466;BME280;5280;42.600;23.556;2023-09-12T11:30:58;93555.28;;;27.31;27.42
10466;BME280;5280;42.600;23.556;2023-09-12T11:33:25;93554.53;;;27.24;25.98
10466;BME280;5280;42.600;23.556;2023-09-12T11:35:54;93562.22;;;27.27;26.50
10466;BME280;5280;42.600;23.556;2023-09-12T11:38:27;93550.09;;;27.29;26.49
10466;BME280;5280;42.600;23.556;2023-09-12T11:40:55;93554.06;;;27.27;26.96
10466;BME280;5280;42.600;23.556;2023-09-12T11:43:23;93549.03;;;27.30;27.05
10466;BME280;5280;42.600;23.556;2023-09-12T11:45:50;93550.09;;;27.29;26.89
10466;BME280;5280;42.600;23.556;2023-09-12T11:48:18;93551.97;;;27.29;26.16
10466;BME280;5280;42.600;23.556;2023-09-12T11:50:49;93540.72;;;27.25;25.81
10466;BME280;5280;42.600;23.556;2023-09-12T11:53:20;93546.56;;;27.29;27.26
10466;BME280;5280;42.600;23.556;2023-09-12T11:55:49;93542.00;;;27.23;26.21
10466;BME280;5280;42.600;23.556;2023-09-12T11:58:18;93540.72;;;27.25;26.65
10466;BME280;5280;42.600;23.556;2023-09-12T12:00:47;93546.97;;;27.26;26.73
10466;BME280;5280;42.600;23.556;2023-09-12T12:03:14;93538.47;;;27.16;25.76
10466;BME280;5280;42.600;23.556;2023-09-12T12:05:41;93536.84;;;27.15;26.99
10466;BME280;5280;42.600;23.556;2023-09-12T12:08:10;93532.75;;;27.30;26.46
10466;BME280;5280;42.600;23.556;2023-09-12T12:10:39;93536.94;;;27.26;26.89
10466;BME280;5280;42.600;23.556;2023-09-12T12:13:06;93532.34;;;27.27;26.10
10466;BME280;5280;42.600;23.556;2023-09-12T12:15:33;93536.28;;;27.31;26.75
10466;BME280;5280;42.600;23.556;2023-09-12T12:18:00;93524.34;;;27.38;27.20
10466;BME280;5280;42.600;23.556;2023-09-12T12:20:27;93532.88;;;27.42;27.17
10466;BME280;5280;42.600;23.556;2023-09-12T12:22:55;93525.34;;;27.44;26.46
10466;BME280;5280;42.600;23.556;2023-09-12T12:25:22;93529.03;;;27.56;26.42
10466;BME280;5280;42.600;23.556;2023-09-12T12:27:51;93521.72;;;27.57;27.31
10466;BME280;5280;42.600;23.556;2023-09-12T12:30:20;93517.97;;;27.58;26.77
10466;BME280;5280;42.600;23.556;2023-09-12T12:32:47;93524.00;;;27.60;26.49
10466;BME280;5280;42.600;23.556;2023-09-12T12:35:18;93511.91;;;27.56;26.46
10466;BME280;5280;42.600;23.556;2023-09-12T12:37:44;93522.94;;;27.61;26.69
10466;BME280;5280;42.600;23.556;2023-09-12T12:40:13;93530.66;;;27.64;26.65
10466;BME280;5280;42.600;23.556;2023-09-12T12:42:41;93512.09;;;27.61;26.25
10466;BME280;5280;42.600;23.556;2023-09-12T12:45:13;93507.94;;;27.58;25.95
10466;BME280;5280;42.600;23.556;2023-09-12T12:47:40;93504.81;;;27.55;27.26
10466;BME280;5280;42.600;23.556;2023-09-12T12:50:08;93510.88;;;27.57;27.18
10466;BME280;5280;42.600;23.556;2023-09-12T12:52:37;93515.47;;;27.56;26.25
10466;BME280;5280;42.600;23.556;2023-09-12T12:55:05;93513.28;;;27.65;26.06
10466;BME280;5280;42.600;23.556;2023-09-12T12:57:31;93506.91;;;27.59;26.47
10466;BME280;5280;42.600;23.556;2023-09-12T12:59:58;93504.56;;;27.63;26.69
10466;BME280;5280;42.600;23.556;2023-09-12T13:02:27;93509.66;;;27.53;26.81
10466;BME280;5280;42.600;23.556;2023-09-12T13:04:54;93509.19;;;27.56;26.62
10466;BME280;5280;42.600;23.556;2023-09-12T13:07:20;93507.53;;;27.55;26.61
10466;BME280;5280;42.600;23.556;2023-09-12T13:09:47;93505.28;;;27.52;26.90
10466;BME280;5280;42.600;23.556;2023-09-12T13:12:14;93506.31;;;27.51;27.38
10466;BME280;5280;42.600;23.556;2023-09-12T13:14:42;93513.00;;;27.48;26.95
10466;BME280;5280;42.600;23.556;2023-09-12T13:17:10;93516.81;;;27.40;26.62
10466;BME280;5280;42.600;23.556;2023-09-12T13:19:38;93505.94;;;27.40;27.42
10466;BME280;5280;42.600;23.556;2023-09-12T13:22:05;93503.84;;;27.42;27.30
10466;BME280;5280;42.600;23.556;2023-09-12T13:24:31;93502.81;;;27.44;27.21
10466;BME280;5280;42.600;23.556;2023-09-12T13:26:58;93498.25;;;27.37;26.93
10466;BME280;5280;42.600;23.556;2023-09-12T13:29:25;93499.91;;;27.38;27.26
10466;BME280;5280;42.600;23.556;2023-09-12T13:31:52;93505.72;;;27.42;26.82
10466;BME280;5280;42.600;23.556;2023-09-12T13:34:19;93495.75;;;27.36;26.87
10466;BME280;5280;42.600;23.556;2023-09-12T13:36:47;93505.06;;;27.47;26.76
10466;BME280;5280;42.600;23.556;2023-09-12T13:39:14;93497.75;;;27.47;27.23
10466;BME280;5280;42.600;23.556;2023-09-12T13:41:42;93505.06;;;27.47;27.45
10466;BME280;5280;42.600;23.556;2023-09-12T13:44:10;93504.22;;;27.53;27.55
10466;BME280;5280;42.600;23.556;2023-09-12T13:46:37;93493.34;;;27.53;26.78
10466;BME280;5280;42.600;23.556;2023-09-12T13:49:03;93495.63;;;27.56;26.93
10466;BME280;5280;42.600;23.556;2023-09-12T13:51:30;93500.00;;;27.57;27.53
10466;BME280;5280;42.600;23.556;2023-09-12T13:53:59;93487.47;;;27.56;27.87
10466;BME280;5280;42.600;23.556;2023-09-12T13:56:26;93488.16;;;27.51;26.89
10466;BME280;5280;42.600;23.556;2023-09-12T13:58:53;93493.44;;;27.39;27.43
10466;BME280;5280;42.600;23.556;2023-09-12T14:01:21;93494.03;;;27.41;27.28
10466;BME280;5280;42.600;23.556;2023-09-12T14:03:48;93499.63;;;27.47;27.59
10466;BME280;5280;42.600;23.556;2023-09-12T14:06:15;93501.31;;;27.48;27.12
10466;BME280;5280;42.600;23.556;2023-09-12T14:08:42;93497.38;;;27.44;26.90
10466;BME280;5280;42.600;23.556;2023-09-12T14:11:10;93500.94;;;27.44;26.62
10466;BME280;5280;42.600;23.556;2023-09-12T14:13:37;93504.91;;;27.41;27.04
10466;BME280;5280;42.600;23.556;2023-09-12T14:16:04;93500.13;;;27.37;27.46
10466;BME280;5280;42.600;23.556;2023-09-12T14:18:30;93497.38;;;27.44;26.43
10466;BME280;5280;42.600;23.556;2023-09-12T14:20:57;93501.34;;;27.41;26.85
10466;BME280;5280;42.600;23.556;2023-09-12T14:23:24;93494.75;;;27.30;27.48
10466;BME280;5280;42.600;23.556;2023-09-12T14:25:51;93495.53;;;27.37;26.87
10466;BME280;5280;42.600;23.556;2023-09-12T14:28:19;93492.69;;;27.26;27.68
10466;BME280;5280;42.600;23.556;2023-09-12T14:30:47;93482.31;;;27.16;27.84
10466;BME280;5280;42.600;23.556;2023-09-12T14:33:15;93494.56;;;27.25;27.41
10466;BME280;5280;42.600;23.556;2023-09-12T14:35:43;93492.47;;;27.27;27.38
10466;BME280;5280;42.600;23.556;2023-09-12T14:38:10;93493.31;;;27.28;27.66
10466;BME280;5280;42.600;23.556;2023-09-12T14:40:37;93487.69;;;27.29;28.30
10466;BME280;5280;42.600;23.556;2023-09-12T14:43:05;93480.22;;;27.18;28.07
10466;BME280;5280;42.600;23.556;2023-09-12T14:45:35;93481.06;;;27.19;27.59
10466;BME280;5280;42.600;23.556;2023-09-12T14:48:02;93490.25;;;27.18;27.98
10466;BME280;5280;42.600;23.556;2023-09-12T14:50:29;93484.00;;;27.17;28.04
10466;BME280;5280;42.600;23.556;2023-09-12T14:52:56;93490.47;;;27.16;28.16
10466;BME280;5280;42.600;23.556;2023-09-12T14:55:23;93487.75;;;27.16;27.50
10466;BME280;5280;42.600;23.556;2023-09-12T14:57:50;93480.06;;;27.13;28.30
10466;BME280;5280;42.600;23.556;2023-09-12T15:00:20;93485.31;;;27.08;27.75
10466;BME280;5280;42.600;23.556;2023-09-12T15:02:48;93479.94;;;26.95;28.94
10466;BME280;5280;42.600;23.556;2023-09-12T15:05:15;93490.38;;;26.98;28.33
10466;BME280;5280;42.600;23.556;2023-09-12T15:07:43;93490.81;;;26.95;28.28
10466;BME280;5280;42.600;23.556;2023-09-12T15:10:10;93491.69;;;26.89;28.46
10466;BME280;5280;42.600;23.556;2023-09-12T15:12:37;93489.56;;;26.91;30.88
10466;BME280;5280;42.600;23.556;2023-09-12T15:15:04;93480.66;;;26.77;28.97
10466;BME280;5280;42.600;23.556;2023-09-12T15:17:31;93490.50;;;26.72;29.15
10466;BME280;5280;42.600;23.556;2023-09-12T15:19:59;93486.75;;;26.73;31.52
10466;BME280;5280;42.600;23.556;2023-09-12T15:22:26;93497.59;;;26.73;33.22
10466;BME280;5280;42.600;23.556;2023-09-12T15:24:54;93495.75;;;26.60;31.70
10466;BME280;5280;42.600;23.556;2023-09-12T15:27:20;93490.78;;;26.50;31.24
10466;BME280;5280;42.600;23.556;2023-09-12T15:29:47;93498.31;;;26.48;33.92
10466;BME280;5280;42.600;23.556;2023-09-12T15:32:14;93492.75;;;26.30;33.86
10466;BME280;5280;42.600;23.556;2023-09-12T15:34:41;93500.28;;;26.15;33.88
10466;BME280;5280;42.600;23.556;2023-09-12T15:37:10;93499.88;;;26.11;34.90
10466;BME280;5280;42.600;23.556;2023-09-12T15:39:37;93485.09;;;26.01;35.84
10466;BME280;5280;42.600;23.556;2023-09-12T15:42:05;93487.19;;;25.92;35.16
10466;BME280;5280;42.600;23.556;2023-09-12T15:44:32;93498.28;;;25.84;36.06
10466;BME280;5280;42.600;23.556;2023-09-12T15:46:58;93484.97;;;25.69;36.51
10466;BME280;5280;42.600;23.556;2023-09-12T15:49:26;93504.53;;;25.58;36.66
10466;BME280;5280;42.600;23.556;2023-09-12T15:51:54;93495.78;;;25.43;36.25
10466;BME280;5280;42.600;23.556;2023-09-12T15:54:22;93500.97;;;25.32;35.75
10466;BME280;5280;42.600;23.556;2023-09-12T15:56:49;93495.16;;;25.28;36.47
10466;BME280;5280;42.600;23.556;2023-09-12T15:59:16;93500.31;;;25.16;37.17
10466;BME280;5280;42.600;23.556;2023-09-12T16:01:43;93491.78;;;25.00;37.24
10466;BME280;5280;42.600;23.556;2023-09-12T16:04:10;93497.56;;;24.83;36.47
10466;BME280;5280;42.600;23.556;2023-09-12T16:06:36;93491.06;;;24.71;38.25
10466;BME280;5280;42.600;23.556;2023-09-12T16:09:03;93493.97;;;24.63;38.96
10466;BME280;5280;42.600;23.556;2023-09-12T16:11:32;93492.91;;;24.58;39.04
10466;BME280;5280;42.600;23.556;2023-09-12T16:13:59;93499.72;;;24.47;39.21
10466;BME280;5280;42.600;23.556;2023-09-12T16:16:26;93497.22;;;24.39;39.08
10466;BME280;5280;42.600;23.556;2023-09-12T16:18:53;93501.50;;;24.27;39.24
10466;BME280;5280;42.600;23.556;2023-09-12T16:21:20;93489.59;;;24.15;38.89
10466;BME280;5280;42.600;23.556;2023-09-12T16:23:51;93500.78;;;24.12;39.60
10466;BME280;5280;42.600;23.556;2023-09-12T16:26:18;93500.94;;;24.03;39.92
10466;BME280;5280;42.600;23.556;2023-09-12T16:28:46;93499.22;;;23.89;40.76
10466;BME280;5280;42.600;23.556;2023-09-12T16:31:13;93507.31;;;23.89;40.11
10466;BME280;5280;42.600;23.556;2023-09-12T16:33:40;93502.03;;;23.75;40.77
10466;BME280;5280;42.600;23.556;2023-09-12T16:36:06;93497.59;;;23.67;40.49
10466;BME280;5280;42.600;23.556;2023-09-12T16:38:33;93501.91;;;23.55;40.32
10466;BME280;5280;42.600;23.556;2023-09-12T16:41:00;93501.13;;;23.40;41.19
10466;BME280;5280;42.600;23.556;2023-09-12T16:43:27;93501.13;;;23.40;40.48
10466;BME280;5280;42.600;23.556;2023-09-12T16:45:55;93501.91;;;23.34;41.25
10466;BME280;5280;42.600;23.556;2023-09-12T16:48:22;93506.16;;;23.22;40.54
10466;BME280;5280;42.600;23.556;2023-09-12T16:50:49;93510.84;;;23.13;40.85
10466;BME280;5280;42.600;23.556;2023-09-12T16:53:16;93501.41;;;23.02;40.82
10466;BME280;5280;42.600;23.556;2023-09-12T16:55:43;93512.78;;;22.98;39.27
10466;BME280;5280;42.600;23.556;2023-09-12T16:58:10;93512.59;;;22.99;40.37
10466;BME280;5280;42.600;23.556;2023-09-12T17:00:38;93511.09;;;22.97;39.96
10466;BME280;5280;42.600;23.556;2023-09-12T17:03:06;93512.75;;;22.91;41.17
10466;BME280;5280;42.600;23.556;2023-09-12T17:05:36;93507.19;;;22.78;41.55
10466;BME280;5280;42.600;23.556;2023-09-12T17:08:03;93518.41;;;22.82;41.08
10466;BME280;5280;42.600;23.556;2023-09-12T17:10:29;93514.41;;;22.71;40.97
10466;BME280;5280;42.600;23.556;2023-09-12T17:12:56;93510.31;;;22.60;41.92
10466;BME280;5280;42.600;23.556;2023-09-12T17:15:23;93519.03;;;22.62;42.04
10466;BME280;5280;42.600;23.556;2023-09-12T17:17:50;93518.31;;;22.54;42.68
10466;BME280;5280;42.600;23.556;2023-09-12T17:20:18;93525.19;;;22.56;42.96
10466;BME280;5280;42.600;23.556;2023-09-12T17:22:45;93530.50;;;22.50;42.43
10466;BME280;5280;42.600;23.556;2023-09-12T17:25:12;93525.41;;;22.40;42.14
10466;BME280;5280;42.600;23.556;2023-09-12T17:27:39;93522.50;;;22.42;42.42
10466;BME280;5280;42.600;23.556;2023-09-12T17:30:07;93523.28;;;22.36;43.09
10466;BME280;5280;42.600;23.556;2023-09-12T17:32:34;93530.09;;;22.31;43.53
10466;BME280;5280;42.600;23.556;2023-09-12T17:35:01;93531.66;;;22.26;43.53
10466;BME280;5280;42.600;23.556;2023-09-12T17:37:32;93531.56;;;22.19;43.27
10466;BME280;5280;42.600;23.556;2023-09-12T17:39:59;93531.97;;;22.16;41.70
10466;BME280;5280;42.600;23.556;2023-09-12T17:42:26;93537.53;;;22.15;42.89
10466;BME280;5280;42.600;23.556;2023-09-12T17:44:53;93530.63;;;22.12;43.00
10466;BME280;5280;42.600;23.556;2023-09-12T17:47:20;93531.41;;;22.06;43.82
10466;BME280;5280;42.600;23.556;2023-09-12T17:49:47;93547.72;;;22.05;43.32
10466;BME280;5280;42.600;23.556;2023-09-12T17:52:14;93539.84;;;22.03;43.92
10466;BME280;5280;42.600;23.556;2023-09-12T17:54:42;93541.91;;;22.01;43.95
10466;BME280;5280;42.600;23.556;2023-09-12T17:57:09;93545.97;;;21.97;43.60
10466;BME280;5280;42.600;23.556;2023-09-12T17:59:36;93547.31;;;21.93;43.82
10466;BME280;5280;42.600;23.556;2023-09-12T18:02:04;93556.97;;;21.87;43.38
10466;BME280;5280;42.600;23.556;2023-09-12T18:04:31;93553.53;;;21.79;43.16
10466;BME280;5280;42.600;23.556;2023-09-12T18:06:59;93552.53;;;21.80;42.50
10466;BME280;5280;42.600;23.556;2023-09-12T18:09:26;93558.53;;;21.82;42.35
10466;BME280;5280;42.600;23.556;2023-09-12T18:11:54;93569.59;;;21.87;41.58
10466;BME280;5280;42.600;23.556;2023-09-12T18:14:21;93566.81;;;21.80;42.55
10466;BME280;5280;42.600;23.556;2023-09-12T18:16:48;93568.38;;;21.75;42.84
10466;BME280;5280;42.600;23.556;2023-09-12T18:19:15;93567.84;;;21.79;41.04
10466;BME280;5280;42.600;23.556;2023-09-12T18:21:42;93573.03;;;21.81;41.48
10466;BME280;5280;42.600;23.556;2023-09-12T18:24:09;93570.25;;;21.74;41.42
10466;BME280;5280;42.600;23.556;2023-09-12T18:26:35;93572.09;;;21.74;42.47
10466;BME280;5280;42.600;23.556;2023-09-12T18:29:04;93573.88;;;21.67;43.59